sensor_id;sensor_type;location;lat;lon;timestamp;P1;durP1;ratioP1;P2;durP2;ratioP2
68097;SDS011;54886;47.036;15.466;2022-10-13T00:00:29;14.88;;;9.98;;
68097;SDS011;54886;47.036;15.466;2022-10-13T00:02:58;14.13;;;9.68;;
68097;SDS011;54886;47.036;15.466;2022-10-13T00:05:25;13.88;;;9.35;;
68097;SDS011;54886;47.036;15.466;2022-10-13T00:07:50;13.13;;;9.65;;
68097;SDS011;54886;47.036;15.466;2022-10-13T00:10:16;12.80;;;9.73;;
68097;SDS011;54886;47.036;15.466;2022-10-13T00:12:41;17.83;;;9.65;;
68097;SDS011;54886;47.036;15.466;2022-10-13T00:15:07;15.57;;;9.35;;
68097;SDS011;54886;47.036;15.466;2022-10-13T00:17:33;16.75;;;9.80;;
68097;SDS011;54886;47.036;15.466;2022-10-13T00:20:00;16.15;;;9.95;;
68097;SDS011;54886;47.036;15.466;2022-10-13T00:22:26;13.38;;;9.52;;
68097;SDS011;54886;47.036;15.466;2022-10-13T00:24:52;13.95;;;9.80;;
68097;SDS011;54886;47.036;15.466;2022-10-13T00:27:18;15.68;;;9.65;;
68097;SDS011;54886;47.036;15.466;2022-10-13T00:29:43;14.70;;;9.95;;
68097;SDS011;54886;47.036;15.466;2022-10-13T00:32:09;16.80;;;9.95;;
68097;SDS011;54886;47.036;15.466;2022-10-13T00:34:37;16.15;;;10.20;;
68097;SDS011;54886;47.036;15.466;2022-10-13T00:37:03;17.25;;;9.68;;
68097;SDS011;54886;47.036;15.466;2022-10-13T00:39:28;15.95;;;9.75;;
68097;SDS011;54886;47.036;15.466;2022-10-13T00:41:55;15.27;;;10.50;;
68097;SDS011;54886;47.036;15.466;2022-10-13T00:47:38;16.35;;;10.38;;
68097;SDS011;54886;47.036;15.466;2022-10-13T00:50:06;14.85;;;10.80;;
68097;SDS011;54886;47.036;15.466;2022-10-13T00:52:36;14.63;;;10.52;;
68097;SDS011;54886;47.036;15.466;2022-10-13T00:55:03;15.32;;;10.40;;
68097;SDS011;54886;47.036;15.466;2022-10-13T00:57:30;16.27;;;10.05;;
68097;SDS011;54886;47.036;15.466;2022-10-13T00:59:57;18.15;;;10.55;;
68097;SDS011;54886;47.036;15.466;2022-10-13T01:02:23;13.60;;;9.80;;
68097;SDS011;54886;47.036;15.466;2022-10-13T01:04:54;15.70;;;9.50;;
68097;SDS011;54886;47.036;15.466;2022-10-13T01:07:21;14.30;;;9.45;;
68097;SDS011;54886;47.036;15.466;2022-10-13T01:09:47;18.15;;;10.05;;
68097;SDS011;54886;47.036;15.466;2022-10-13T01:20:21;15.90;;;9.77;;
68097;SDS011;54886;47.036;15.466;2022-10-13T01:33:47;13.27;;;9.82;;
68097;SDS011;54886;47.036;15.466;2022-10-13T01:36:36;17.50;;;10.63;;
68097;SDS011;54886;47.036;15.466;2022-10-13T01:42:18;19.10;;;10.13;;
68097;SDS011;54886;47.036;15.466;2022-10-13T01:44:49;15.55;;;10.02;;
68097;SDS011;54886;47.036;15.466;2022-10-13T01:47:17;16.40;;;10.55;;
68097;SDS011;54886;47.036;15.466;2022-10-13T01:49:43;14.68;;;10.77;;
68097;SDS011;54886;47.036;15.466;2022-10-13T01:52:10;14.57;;;10.07;;
68097;SDS011;54886;47.036;15.466;2022-10-13T01:54:39;13.95;;;9.90;;
68097;SDS011;54886;47.036;15.466;2022-10-13T01:57:24;13.60;;;10.10;;
68097;SDS011;54886;47.036;15.466;2022-10-13T01:59:54;16.73;;;10.70;;
68097;SDS011;54886;47.036;15.466;2022-10-13T02:02:22;14.55;;;9.23;;
68097;SDS011;54886;47.036;15.466;2022-10-13T02:05:07;14.43;;;9.43;;
68097;SDS011;54886;47.036;15.466;2022-10-13T02:12:41;15.35;;;10.07;;
68097;SDS011;54886;47.036;15.466;2022-10-13T02:15:15;17.77;;;10.45;;
68097;SDS011;54886;47.036;15.466;2022-10-13T02:17:43;19.38;;;10.10;;
68097;SDS011;54886;47.036;15.466;2022-10-13T02:20:08;17.83;;;10.57;;
68097;SDS011;54886;47.036;15.466;2022-10-13T02:22:41;19.08;;;10.13;;
68097;SDS011;54886;47.036;15.466;2022-10-13T02:25:10;15.85;;;9.93;;
68097;SDS011;54886;47.036;15.466;2022-10-13T02:27:35;15.70;;;9.75;;
68097;SDS011;54886;47.036;15.466;2022-10-13T02:30:01;16.65;;;10.02;;
68097;SDS011;54886;47.036;15.466;2022-10-13T02:32:26;14.82;;;10.10;;
68097;SDS011;54886;47.036;15.466;2022-10-13T02:34:52;16.13;;;10.25;;
68097;SDS011;54886;47.036;15.466;2022-10-13T02:37:17;15.77;;;10.35;;
68097;SDS011;54886;47.036;15.466;2022-10-13T02:39:43;16.85;;;10.32;;
68097;SDS011;54886;47.036;15.466;2022-10-13T02:42:08;16.35;;;10.77;;
68097;SDS011;54886;47.036;15.466;2022-10-13T02:44:34;19.27;;;10.90;;
68097;SDS011;54886;47.036;15.466;2022-10-13T02:46:59;15.95;;;10.73;;
68097;SDS011;54886;47.036;15.466;2022-10-13T02:49:25;16.67;;;10.15;;
68097;SDS011;54886;47.036;15.466;2022-10-13T02:51:51;13.70;;;9.75;;
68097;SDS011;54886;47.036;15.466;2022-10-13T02:54:17;17.50;;;11.02;;
68097;SDS011;54886;47.036;15.466;2022-10-13T02:56:42;16.48;;;10.80;;
68097;SDS011;54886;47.036;15.466;2022-10-13T02:59:08;16.67;;;10.88;;
68097;SDS011;54886;47.036;15.466;2022-10-13T03:01:33;17.25;;;10.52;;
68097;SDS011;54886;47.036;15.466;2022-10-13T03:03:59;17.40;;;10.52;;
68097;SDS011;54886;47.036;15.466;2022-10-13T03:06:25;18.25;;;9.93;;
68097;SDS011;54886;47.036;15.466;2022-10-13T03:08:50;15.75;;;11.07;;
68097;SDS011;54886;47.036;15.466;2022-10-13T03:11:16;16.75;;;10.15;;
68097;SDS011;54886;47.036;15.466;2022-10-13T03:13:41;15.48;;;10.30;;
68097;SDS011;54886;47.036;15.466;2022-10-13T03:16:06;17.80;;;10.13;;
68097;SDS011;54886;47.036;15.466;2022-10-13T03:18:32;17.10;;;10.82;;
68097;SDS011;54886;47.036;15.466;2022-10-13T03:21:00;14.23;;;10.05;;
68097;SDS011;54886;47.036;15.466;2022-10-13T03:23:27;15.48;;;10.10;;
68097;SDS011;54886;47.036;15.466;2022-10-13T03:25:53;15.88;;;10.70;;
68097;SDS011;54886;47.036;15.466;2022-10-13T03:28:19;16.35;;;10.73;;
68097;SDS011;54886;47.036;15.466;2022-10-13T03:30:44;17.50;;;10.60;;
68097;SDS011;54886;47.036;15.466;2022-10-13T03:33:10;21.05;;;10.48;;
68097;SDS011;54886;47.036;15.466;2022-10-13T03:35:35;15.48;;;10.23;;
68097;SDS011;54886;47.036;15.466;2022-10-13T03:38:01;15.95;;;10.63;;
68097;SDS011;54886;47.036;15.466;2022-10-13T03:40:26;16.17;;;10.85;;
68097;SDS011;54886;47.036;15.466;2022-10-13T03:42:52;17.02;;;10.48;;
68097;SDS011;54886;47.036;15.466;2022-10-13T03:45:18;18.80;;;10.90;;
68097;SDS011;54886;47.036;15.466;2022-10-13T03:47:43;16.77;;;10.48;;
68097;SDS011;54886;47.036;15.466;2022-10-13T03:50:09;15.18;;;9.73;;
68097;SDS011;54886;47.036;15.466;2022-10-13T03:52:34;14.70;;;10.10;;
68097;SDS011;54886;47.036;15.466;2022-10-13T03:54:59;14.45;;;10.35;;
68097;SDS011;54886;47.036;15.466;2022-10-13T03:57:25;16.70;;;10.35;;
68097;SDS011;54886;47.036;15.466;2022-10-13T03:59:50;15.65;;;9.77;;
68097;SDS011;54886;47.036;15.466;2022-10-13T04:02:16;15.82;;;9.93;;
68097;SDS011;54886;47.036;15.466;2022-10-13T04:04:41;15.32;;;10.38;;
68097;SDS011;54886;47.036;15.466;2022-10-13T04:07:06;13.05;;;10.10;;
68097;SDS011;54886;47.036;15.466;2022-10-13T04:09:32;15.85;;;10.38;;
68097;SDS011;54886;47.036;15.466;2022-10-13T04:11:58;13.68;;;10.10;;
68097;SDS011;54886;47.036;15.466;2022-10-13T04:14:24;17.02;;;10.00;;
68097;SDS011;54886;47.036;15.466;2022-10-13T04:16:49;14.23;;;10.43;;
68097;SDS011;54886;47.036;15.466;2022-10-13T04:19:14;14.05;;;10.27;;
68097;SDS011;54886;47.036;15.466;2022-10-13T04:21:40;15.13;;;10.02;;
68097;SDS011;54886;47.036;15.466;2022-10-13T04:24:06;16.77;;;10.68;;
68097;SDS011;54886;47.036;15.466;2022-10-13T04:26:34;13.70;;;9.88;;
68097;SDS011;54886;47.036;15.466;2022-10-13T04:29:01;14.65;;;10.32;;
68097;SDS011;54886;47.036;15.466;2022-10-13T04:33:54;14.27;;;9.30;;
68097;SDS011;54886;47.036;15.466;2022-10-13T04:36:20;13.02;;;10.00;;
68097;SDS011;54886;47.036;15.466;2022-10-13T04:38:46;14.15;;;10.35;;
68097;SDS011;54886;47.036;15.466;2022-10-13T04:41:12;13.73;;;9.60;;
68097;SDS011;54886;47.036;15.466;2022-10-13T04:43:38;13.27;;;10.25;;
68097;SDS011;54886;47.036;15.466;2022-10-13T04:46:08;16.33;;;10.05;;
68097;SDS011;54886;47.036;15.466;2022-10-13T04:48:38;13.55;;;10.38;;
68097;SDS011;54886;47.036;15.466;2022-10-13T04:51:08;12.23;;;9.27;;
68097;SDS011;54886;47.036;15.466;2022-10-13T04:53:35;12.85;;;9.70;;
68097;SDS011;54886;47.036;15.466;2022-10-13T04:56:03;13.75;;;10.23;;
68097;SDS011;54886;47.036;15.466;2022-10-13T05:00:55;12.98;;;9.35;;
68097;SDS011;54886;47.036;15.466;2022-10-13T05:03:22;12.60;;;10.23;;
68097;SDS011;54886;47.036;15.466;2022-10-13T05:05:48;15.07;;;10.68;;
68097;SDS011;54886;47.036;15.466;2022-10-13T05:08:13;13.13;;;10.27;;
68097;SDS011;54886;47.036;15.466;2022-10-13T05:10:38;12.77;;;10.50;;
68097;SDS011;54886;47.036;15.466;2022-10-13T05:13:04;13.65;;;10.48;;
68097;SDS011;54886;47.036;15.466;2022-10-13T05:15:29;14.18;;;10.05;;
68097;SDS011;54886;47.036;15.466;2022-10-13T05:17:55;13.15;;;10.35;;
68097;SDS011;54886;47.036;15.466;2022-10-13T05:20:20;13.85;;;9.75;;
68097;SDS011;54886;47.036;15.466;2022-10-13T05:22:45;14.30;;;10.38;;
68097;SDS011;54886;47.036;15.466;2022-10-13T05:25:11;14.80;;;10.55;;
68097;SDS011;54886;47.036;15.466;2022-10-13T05:27:36;15.75;;;10.60;;
68097;SDS011;54886;47.036;15.466;2022-10-13T05:30:02;14.77;;;10.50;;
68097;SDS011;54886;47.036;15.466;2022-10-13T05:32:27;12.70;;;10.02;;
68097;SDS011;54886;47.036;15.466;2022-10-13T05:34:53;14.82;;;10.30;;
68097;SDS011;54886;47.036;15.466;2022-10-13T05:37:18;13.38;;;9.68;;
68097;SDS011;54886;47.036;15.466;2022-10-13T05:39:46;14.00;;;9.55;;
68097;SDS011;54886;47.036;15.466;2022-10-13T05:42:12;13.35;;;10.25;;
68097;SDS011;54886;47.036;15.466;2022-10-13T05:44:37;12.15;;;9.93;;
68097;SDS011;54886;47.036;15.466;2022-10-13T05:47:02;11.52;;;9.38;;
68097;SDS011;54886;47.036;15.466;2022-10-13T05:49:28;13.57;;;9.40;;
68097;SDS011;54886;47.036;15.466;2022-10-13T05:51:57;12.13;;;9.57;;
68097;SDS011;54886;47.036;15.466;2022-10-13T05:54:35;13.00;;;10.00;;
68097;SDS011;54886;47.036;15.466;2022-10-13T05:57:14;13.02;;;9.75;;
68097;SDS011;54886;47.036;15.466;2022-10-13T05:59:55;12.85;;;9.43;;
68097;SDS011;54886;47.036;15.466;2022-10-13T06:02:23;13.02;;;9.35;;
68097;SDS011;54886;47.036;15.466;2022-10-13T06:04:52;13.00;;;8.73;;
68097;SDS011;54886;47.036;15.466;2022-10-13T06:07:21;12.30;;;9.20;;
68097;SDS011;54886;47.036;15.466;2022-10-13T06:09:47;11.88;;;8.98;;
68097;SDS011;54886;47.036;15.466;2022-10-13T06:12:13;12.30;;;8.60;;
68097;SDS011;54886;47.036;15.466;2022-10-13T06:14:39;14.05;;;10.00;;
68097;SDS011;54886;47.036;15.466;2022-10-13T06:17:04;12.60;;;9.43;;
68097;SDS011;54886;47.036;15.466;2022-10-13T06:19:30;13.10;;;8.82;;
68097;SDS011;54886;47.036;15.466;2022-10-13T06:21:55;12.18;;;9.00;;
68097;SDS011;54886;47.036;15.466;2022-10-13T06:24:20;15.85;;;8.93;;
68097;SDS011;54886;47.036;15.466;2022-10-13T06:26:46;19.15;;;12.05;;
68097;SDS011;54886;47.036;15.466;2022-10-13T06:29:11;17.13;;;12.10;;
68097;SDS011;54886;47.036;15.466;2022-10-13T06:31:37;18.33;;;9.98;;
68097;SDS011;54886;47.036;15.466;2022-10-13T06:34:02;13.80;;;10.18;;
68097;SDS011;54886;47.036;15.466;2022-10-13T06:36:27;15.48;;;10.73;;
68097;SDS011;54886;47.036;15.466;2022-10-13T06:38:53;14.18;;;10.88;;
68097;SDS011;54886;47.036;15.466;2022-10-13T06:41:18;14.85;;;10.90;;
68097;SDS011;54886;47.036;15.466;2022-10-13T06:43:43;15.65;;;11.45;;
68097;SDS011;54886;47.036;15.466;2022-10-13T06:46:09;14.52;;;10.93;;
68097;SDS011;54886;47.036;15.466;2022-10-13T06:48:36;14.18;;;11.18;;
68097;SDS011;54886;47.036;15.466;2022-10-13T06:51:02;14.45;;;11.30;;
68097;SDS011;54886;47.036;15.466;2022-10-13T06:53:30;17.15;;;12.00;;
68097;SDS011;54886;47.036;15.466;2022-10-13T06:55:56;17.15;;;11.73;;
68097;SDS011;54886;47.036;15.466;2022-10-13T06:58:23;16.88;;;12.32;;
68097;SDS011;54886;47.036;15.466;2022-10-13T07:00:48;15.85;;;12.02;;
68097;SDS011;54886;47.036;15.466;2022-10-13T07:03:13;20.92;;;13.85;;
68097;SDS011;54886;47.036;15.466;2022-10-13T07:05:39;17.27;;;12.88;;
68097;SDS011;54886;47.036;15.466;2022-10-13T07:08:04;19.38;;;13.82;;
68097;SDS011;54886;47.036;15.466;2022-10-13T07:10:29;19.48;;;13.73;;
68097;SDS011;54886;47.036;15.466;2022-10-13T07:12:55;19.40;;;14.38;;
68097;SDS011;54886;47.036;15.466;2022-10-13T07:15:21;20.67;;;13.68;;
68097;SDS011;54886;47.036;15.466;2022-10-13T07:17:48;21.87;;;14.50;;
68097;SDS011;54886;47.036;15.466;2022-10-13T07:20:16;22.02;;;15.77;;
68097;SDS011;54886;47.036;15.466;2022-10-13T07:22:41;18.83;;;14.75;;
68097;SDS011;54886;47.036;15.466;2022-10-13T07:25:07;20.58;;;13.50;;
68097;SDS011;54886;47.036;15.466;2022-10-13T07:27:32;18.00;;;12.48;;
68097;SDS011;54886;47.036;15.466;2022-10-13T07:29:58;18.75;;;13.90;;
68097;SDS011;54886;47.036;15.466;2022-10-13T07:32:23;20.08;;;14.07;;
68097;SDS011;54886;47.036;15.466;2022-10-13T07:34:50;20.35;;;15.60;;
68097;SDS011;54886;47.036;15.466;2022-10-13T07:37:17;21.63;;;15.52;;
68097;SDS011;54886;47.036;15.466;2022-10-13T07:39:42;21.10;;;15.23;;
68097;SDS011;54886;47.036;15.466;2022-10-13T07:42:07;20.45;;;15.10;;
68097;SDS011;54886;47.036;15.466;2022-10-13T07:44:33;20.02;;;15.18;;
68097;SDS011;54886;47.036;15.466;2022-10-13T07:46:58;24.52;;;16.50;;
68097;SDS011;54886;47.036;15.466;2022-10-13T07:49:23;20.20;;;14.02;;
68097;SDS011;54886;47.036;15.466;2022-10-13T07:51:49;19.80;;;13.88;;
68097;SDS011;54886;47.036;15.466;2022-10-13T07:54:14;21.77;;;14.85;;
68097;SDS011;54886;47.036;15.466;2022-10-13T07:56:42;22.10;;;14.30;;
68097;SDS011;54886;47.036;15.466;2022-10-13T07:59:08;21.98;;;15.30;;
68097;SDS011;54886;47.036;15.466;2022-10-13T08:01:33;22.48;;;15.20;;
68097;SDS011;54886;47.036;15.466;2022-10-13T08:03:59;22.38;;;16.60;;
68097;SDS011;54886;47.036;15.466;2022-10-13T08:06:24;21.75;;;14.82;;
68097;SDS011;54886;47.036;15.466;2022-10-13T08:08:49;26.42;;;16.45;;
68097;SDS011;54886;47.036;15.466;2022-10-13T08:11:15;21.73;;;15.13;;
68097;SDS011;54886;47.036;15.466;2022-10-13T08:13:41;24.10;;;16.15;;
68097;SDS011;54886;47.036;15.466;2022-10-13T08:16:06;23.55;;;16.63;;
68097;SDS011;54886;47.036;15.466;2022-10-13T08:18:32;24.02;;;14.93;;
68097;SDS011;54886;47.036;15.466;2022-10-13T08:21:00;21.15;;;16.13;;
68097;SDS011;54886;47.036;15.466;2022-10-13T08:23:27;22.95;;;15.23;;
68097;SDS011;54886;47.036;15.466;2022-10-13T08:25:53;22.30;;;15.40;;
68097;SDS011;54886;47.036;15.466;2022-10-13T08:28:20;22.60;;;16.33;;
68097;SDS011;54886;47.036;15.466;2022-10-13T08:30:47;23.08;;;16.23;;
68097;SDS011;54886;47.036;15.466;2022-10-13T08:33:14;23.58;;;16.95;;
68097;SDS011;54886;47.036;15.466;2022-10-13T08:35:39;24.50;;;16.20;;
68097;SDS011;54886;47.036;15.466;2022-10-13T08:38:06;23.45;;;16.80;;
68097;SDS011;54886;47.036;15.466;2022-10-13T08:40:32;24.92;;;17.08;;
68097;SDS011;54886;47.036;15.466;2022-10-13T08:42:58;22.88;;;17.08;;
68097;SDS011;54886;47.036;15.466;2022-10-13T08:45:27;24.52;;;17.13;;
68097;SDS011;54886;47.036;15.466;2022-10-13T08:47:55;22.83;;;16.42;;
68097;SDS011;54886;47.036;15.466;2022-10-13T08:50:25;25.05;;;17.30;;
68097;SDS011;54886;47.036;15.466;2022-10-13T08:53:05;29.48;;;18.02;;
68097;SDS011;54886;47.036;15.466;2022-10-13T08:55:59;24.95;;;18.45;;
68097;SDS011;54886;47.036;15.466;2022-10-13T08:58:32;27.35;;;17.88;;
68097;SDS011;54886;47.036;15.466;2022-10-13T09:01:20;29.25;;;19.00;;
68097;SDS011;54886;47.036;15.466;2022-10-13T09:08:59;34.53;;;20.75;;
68097;SDS011;54886;47.036;15.466;2022-10-13T09:11:31;32.67;;;20.48;;
68097;SDS011;54886;47.036;15.466;2022-10-13T09:14:03;32.15;;;20.73;;
68097;SDS011;54886;47.036;15.466;2022-10-13T09:16:35;35.53;;;21.70;;
68097;SDS011;54886;47.036;15.466;2022-10-13T09:21:39;29.85;;;20.45;;
68097;SDS011;54886;47.036;15.466;2022-10-13T09:24:05;29.17;;;19.20;;
68097;SDS011;54886;47.036;15.466;2022-10-13T09:26:35;29.75;;;20.70;;
68097;SDS011;54886;47.036;15.466;2022-10-13T09:29:06;32.85;;;22.63;;
68097;SDS011;54886;47.036;15.466;2022-10-13T09:31:33;35.33;;;21.17;;
68097;SDS011;54886;47.036;15.466;2022-10-13T09:34:22;44.97;;;24.00;;
68097;SDS011;54886;47.036;15.466;2022-10-13T09:39:20;33.88;;;21.40;;
68097;SDS011;54886;47.036;15.466;2022-10-13T09:41:45;35.00;;;20.60;;
68097;SDS011;54886;47.036;15.466;2022-10-13T09:44:18;29.88;;;21.45;;
68097;SDS011;54886;47.036;15.466;2022-10-13T09:46:56;32.45;;;20.88;;
68097;SDS011;54886;47.036;15.466;2022-10-13T09:52:02;33.42;;;21.60;;
68097;SDS011;54886;47.036;15.466;2022-10-13T09:57:12;31.02;;;20.33;;
68097;SDS011;54886;47.036;15.466;2022-10-13T09:59:54;34.13;;;20.90;;
68097;SDS011;54886;47.036;15.466;2022-10-13T10:02:39;33.45;;;20.83;;
68097;SDS011;54886;47.036;15.466;2022-10-13T10:05:24;30.25;;;20.98;;
68097;SDS011;54886;47.036;15.466;2022-10-13T10:07:52;32.70;;;20.17;;
68097;SDS011;54886;47.036;15.466;2022-10-13T10:10:24;28.10;;;19.30;;
68097;SDS011;54886;47.036;15.466;2022-10-13T10:12:55;26.10;;;18.15;;
68097;SDS011;54886;47.036;15.466;2022-10-13T10:15:23;26.88;;;17.92;;
68097;SDS011;54886;47.036;15.466;2022-10-13T10:18:02;23.45;;;17.63;;
68097;SDS011;54886;47.036;15.466;2022-10-13T10:23:40;29.13;;;17.35;;
68097;SDS011;54886;47.036;15.466;2022-10-13T10:26:14;25.25;;;16.70;;
68097;SDS011;54886;47.036;15.466;2022-10-13T10:31:25;31.10;;;15.93;;
68097;SDS011;54886;47.036;15.466;2022-10-13T10:36:59;24.70;;;16.10;;
68097;SDS011;54886;47.036;15.466;2022-10-13T10:39:47;24.98;;;16.00;;
68097;SDS011;54886;47.036;15.466;2022-10-13T10:45:22;21.98;;;15.32;;
68097;SDS011;54886;47.036;15.466;2022-10-13T10:47:51;22.88;;;16.52;;
68097;SDS011;54886;47.036;15.466;2022-10-13T10:50:22;23.70;;;16.13;;
68097;SDS011;54886;47.036;15.466;2022-10-13T10:58:04;25.10;;;14.82;;
68097;SDS011;54886;47.036;15.466;2022-10-13T11:09:00;20.42;;;14.52;;
68097;SDS011;54886;47.036;15.466;2022-10-13T11:11:28;21.30;;;15.18;;
68097;SDS011;54886;47.036;15.466;2022-10-13T11:16:37;23.15;;;15.43;;
68097;SDS011;54886;47.036;15.466;2022-10-13T11:19:26;18.35;;;12.95;;
68097;SDS011;54886;47.036;15.466;2022-10-13T11:22:16;22.15;;;13.43;;
68097;SDS011;54886;47.036;15.466;2022-10-13T11:24:45;20.70;;;13.23;;
68097;SDS011;54886;47.036;15.466;2022-10-13T11:27:26;21.77;;;12.68;;
68097;SDS011;54886;47.036;15.466;2022-10-13T11:30:01;18.65;;;11.70;;
68097;SDS011;54886;47.036;15.466;2022-10-13T11:37:37;14.63;;;9.88;;
68097;SDS011;54886;47.036;15.466;2022-10-13T11:46:01;17.92;;;10.13;;
68097;SDS011;54886;47.036;15.466;2022-10-13T11:56:44;13.48;;;9.25;;
68097;SDS011;54886;47.036;15.466;2022-10-13T11:59:19;14.07;;;9.80;;
68097;SDS011;54886;47.036;15.466;2022-10-13T12:01:54;13.43;;;8.85;;
68097;SDS011;54886;47.036;15.466;2022-10-13T12:04:29;15.30;;;9.27;;
68097;SDS011;54886;47.036;15.466;2022-10-13T12:06:56;16.58;;;9.98;;
68097;SDS011;54886;47.036;15.466;2022-10-13T12:09:25;14.85;;;9.68;;
68097;SDS011;54886;47.036;15.466;2022-10-13T12:11:55;15.60;;;8.73;;
68097;SDS011;54886;47.036;15.466;2022-10-13T12:14:30;17.13;;;8.98;;
68097;SDS011;54886;47.036;15.466;2022-10-13T12:17:01;14.32;;;9.50;;
68097;SDS011;54886;47.036;15.466;2022-10-13T12:19:27;13.98;;;9.80;;
68097;SDS011;54886;47.036;15.466;2022-10-13T12:21:56;15.82;;;10.32;;
68097;SDS011;54886;47.036;15.466;2022-10-13T12:24:24;17.73;;;8.98;;
68097;SDS011;54886;47.036;15.466;2022-10-13T12:26:51;15.00;;;9.68;;
68097;SDS011;54886;47.036;15.466;2022-10-13T12:29:17;16.52;;;10.00;;
68097;SDS011;54886;47.036;15.466;2022-10-13T12:31:47;16.98;;;9.68;;
68097;SDS011;54886;47.036;15.466;2022-10-13T12:36:51;16.17;;;9.63;;
68097;SDS011;54886;47.036;15.466;2022-10-13T12:39:20;14.75;;;9.15;;
68097;SDS011;54886;47.036;15.466;2022-10-13T12:41:46;16.35;;;8.57;;
68097;SDS011;54886;47.036;15.466;2022-10-13T12:44:13;16.77;;;9.52;;
68097;SDS011;54886;47.036;15.466;2022-10-13T12:49:24;15.65;;;9.50;;
68097;SDS011;54886;47.036;15.466;2022-10-13T12:51:51;16.10;;;9.30;;
68097;SDS011;54886;47.036;15.466;2022-10-13T12:54:46;14.73;;;9.20;;
68097;SDS011;54886;47.036;15.466;2022-10-13T12:57:16;16.63;;;9.88;;
68097;SDS011;54886;47.036;15.466;2022-10-13T12:59:44;15.43;;;9.45;;
68097;SDS011;54886;47.036;15.466;2022-10-13T13:02:46;15.18;;;9.75;;
68097;SDS011;54886;47.036;15.466;2022-10-13T13:05:02;14.45;;;9.70;;
68097;SDS011;54886;47.036;15.466;2022-10-13T13:07:51;18.00;;;10.07;;
68097;SDS011;54886;47.036;15.466;2022-10-13T13:10:17;17.20;;;10.27;;
68097;SDS011;54886;47.036;15.466;2022-10-13T13:12:44;20.55;;;11.57;;
68097;SDS011;54886;47.036;15.466;2022-10-13T13:17:49;20.35;;;11.38;;
68097;SDS011;54886;47.036;15.466;2022-10-13T13:22:52;19.60;;;11.65;;
68097;SDS011;54886;47.036;15.466;2022-10-13T13:25:18;20.27;;;12.15;;
68097;SDS011;54886;47.036;15.466;2022-10-13T13:27:43;22.13;;;11.82;;
68097;SDS011;54886;47.036;15.466;2022-10-13T13:30:12;20.83;;;12.90;;
68097;SDS011;54886;47.036;15.466;2022-10-13T13:32:39;20.67;;;12.35;;
68097;SDS011;54886;47.036;15.466;2022-10-13T13:35:05;19.45;;;12.55;;
68097;SDS011;54886;47.036;15.466;2022-10-13T13:37:38;18.58;;;12.13;;
68097;SDS011;54886;47.036;15.466;2022-10-13T13:40:07;17.38;;;11.73;;
68097;SDS011;54886;47.036;15.466;2022-10-13T13:42:39;19.50;;;12.20;;
68097;SDS011;54886;47.036;15.466;2022-10-13T13:45:04;16.58;;;11.10;;
68097;SDS011;54886;47.036;15.466;2022-10-13T13:47:30;18.70;;;11.73;;
68097;SDS011;54886;47.036;15.466;2022-10-13T13:49:55;17.63;;;11.63;;
68097;SDS011;54886;47.036;15.466;2022-10-13T13:52:21;16.55;;;10.73;;
68097;SDS011;54886;47.036;15.466;2022-10-13T13:54:48;17.13;;;11.50;;
68097;SDS011;54886;47.036;15.466;2022-10-13T13:57:17;15.68;;;11.13;;
68097;SDS011;54886;47.036;15.466;2022-10-13T13:59:43;17.98;;;11.25;;
68097;SDS011;54886;47.036;15.466;2022-10-13T14:02:11;18.13;;;12.10;;
68097;SDS011;54886;47.036;15.466;2022-10-13T14:04:43;17.17;;;12.02;;
68097;SDS011;54886;47.036;15.466;2022-10-13T14:07:09;18.15;;;11.23;;
68097;SDS011;54886;47.036;15.466;2022-10-13T14:09:35;17.52;;;11.88;;
68097;SDS011;54886;47.036;15.466;2022-10-13T14:12:01;17.63;;;12.32;;
68097;SDS011;54886;47.036;15.466;2022-10-13T14:14:28;19.40;;;12.20;;
68097;SDS011;54886;47.036;15.466;2022-10-13T14:16:54;20.05;;;12.00;;
68097;SDS011;54886;47.036;15.466;2022-10-13T14:19:20;17.70;;;12.27;;
68097;SDS011;54886;47.036;15.466;2022-10-13T14:21:45;22.02;;;13.20;;
68097;SDS011;54886;47.036;15.466;2022-10-13T14:24:11;22.02;;;13.48;;
68097;SDS011;54886;47.036;15.466;2022-10-13T14:26:36;17.85;;;12.57;;
68097;SDS011;54886;47.036;15.466;2022-10-13T14:29:02;19.73;;;13.13;;
68097;SDS011;54886;47.036;15.466;2022-10-13T14:31:28;19.10;;;13.25;;
68097;SDS011;54886;47.036;15.466;2022-10-13T14:33:54;19.77;;;13.07;;
68097;SDS011;54886;47.036;15.466;2022-10-13T14:36:20;17.83;;;12.98;;
68097;SDS011;54886;47.036;15.466;2022-10-13T14:38:45;18.98;;;12.40;;
68097;SDS011;54886;47.036;15.466;2022-10-13T14:41:10;19.30;;;12.50;;
68097;SDS011;54886;47.036;15.466;2022-10-13T14:43:36;17.90;;;12.45;;
68097;SDS011;54886;47.036;15.466;2022-10-13T14:46:04;24.92;;;12.73;;
68097;SDS011;54886;47.036;15.466;2022-10-13T14:48:31;18.90;;;13.20;;
68097;SDS011;54886;47.036;15.466;2022-10-13T14:50:58;18.55;;;12.80;;
68097;SDS011;54886;47.036;15.466;2022-10-13T14:53:24;18.80;;;12.85;;
68097;SDS011;54886;47.036;15.466;2022-10-13T14:55:50;17.67;;;13.38;;
68097;SDS011;54886;47.036;15.466;2022-10-13T14:58:16;21.50;;;13.75;;
68097;SDS011;54886;47.036;15.466;2022-10-13T15:00:41;19.48;;;13.13;;
68097;SDS011;54886;47.036;15.466;2022-10-13T15:03:07;19.88;;;14.15;;
68097;SDS011;54886;47.036;15.466;2022-10-13T15:05:33;17.70;;;13.05;;
68097;SDS011;54886;47.036;15.466;2022-10-13T15:07:58;18.73;;;13.80;;
68097;SDS011;54886;47.036;15.466;2022-10-13T15:10:24;18.65;;;13.32;;
68097;SDS011;54886;47.036;15.466;2022-10-13T15:12:49;21.70;;;13.38;;
68097;SDS011;54886;47.036;15.466;2022-10-13T15:15:15;19.73;;;14.45;;
68097;SDS011;54886;47.036;15.466;2022-10-13T15:17:40;23.70;;;14.43;;
68097;SDS011;54886;47.036;15.466;2022-10-13T15:20:06;21.45;;;14.63;;
68097;SDS011;54886;47.036;15.466;2022-10-13T15:22:32;19.88;;;14.07;;
68097;SDS011;54886;47.036;15.466;2022-10-13T15:24:57;19.23;;;13.45;;
68097;SDS011;54886;47.036;15.466;2022-10-13T15:27:22;20.73;;;14.20;;
68097;SDS011;54886;47.036;15.466;2022-10-13T15:32:16;20.52;;;13.05;;
68097;SDS011;54886;47.036;15.466;2022-10-13T15:34:45;21.95;;;14.52;;
68097;SDS011;54886;47.036;15.466;2022-10-13T15:37:11;23.58;;;14.95;;
68097;SDS011;54886;47.036;15.466;2022-10-13T15:39:36;23.85;;;14.52;;
68097;SDS011;54886;47.036;15.466;2022-10-13T15:42:05;21.17;;;15.10;;
68097;SDS011;54886;47.036;15.466;2022-10-13T15:44:30;23.00;;;15.68;;
68097;SDS011;54886;47.036;15.466;2022-10-13T15:46:56;24.00;;;15.10;;
68097;SDS011;54886;47.036;15.466;2022-10-13T15:49:23;24.90;;;15.55;;
68097;SDS011;54886;47.036;15.466;2022-10-13T15:51:50;21.13;;;14.73;;
68097;SDS011;54886;47.036;15.466;2022-10-13T15:54:15;20.98;;;14.63;;
68097;SDS011;54886;47.036;15.466;2022-10-13T15:56:42;20.92;;;15.73;;
68097;SDS011;54886;47.036;15.466;2022-10-13T15:59:08;20.40;;;14.20;;
68097;SDS011;54886;47.036;15.466;2022-10-13T16:01:33;21.45;;;14.32;;
68097;SDS011;54886;47.036;15.466;2022-10-13T16:03:58;20.15;;;14.38;;
68097;SDS011;54886;47.036;15.466;2022-10-13T16:06:24;20.08;;;13.63;;